Upstream stations:
Downstream station:
SHEF ID: BRIO2 Canadian River at Bridgeport, OK
STATION TYPE:
Regulating: Stage = 15.00, Flow = 8545
STAGE RIV-FLOW
ft cfs
Ccp-Rev Ccp-Rev
(US/Central)
05/21 00:00 12.59 2176
05/21 01:00 12.59 2176
05/21 02:00 12.57 2146
05/21 03:00 12.56 2132
05/21 04:00 12.53 2089
05/21 05:00 12.52 2074
05/21 06:00 9.71 88
05/21 07:00 12.55 2117
05/21 08:00 9.71 88
05/21 09:00 13.10 3018
05/21 10:00 13.11 3036
05/21 11:00 13.10 3018
05/21 12:00 13.04 2909
05/21 13:00 12.96 2768
05/21 14:00 12.92 2699
05/21 15:00 12.90 2665
05/21 16:00 12.88 2631
05/21 17:00 12.86 2598
05/21 18:00 12.84 2565
05/21 19:00 12.83 2548
05/21 20:00 12.73 2388
05/21 21:00 12.67 2295
05/21 22:00 9.66 75
05/21 23:00 ---- ----